createdAt,value
2019-01-13T00:00:46.226Z,0.00
2019-01-13T00:01:46.212Z,0.00
2019-01-13T00:02:46.220Z,0.00
2019-01-13T00:03:46.217Z,0.00
2019-01-13T00:04:46.198Z,0.00
2019-01-13T00:05:46.171Z,0.00
2019-01-13T00:06:46.184Z,0.00
2019-01-13T00:07:46.166Z,0.00
2019-01-13T00:08:46.176Z,0.00
2019-01-13T00:09:46.149Z,0.00
2019-01-13T00:10:46.123Z,0.00
2019-01-13T00:11:46.116Z,0.00
2019-01-13T00:12:46.100Z,0.00
2019-01-13T00:13:46.103Z,0.00
2019-01-13T00:14:46.088Z,0.00
2019-01-13T00:15:46.085Z,0.00
2019-01-13T00:16:46.071Z,0.00
2019-01-13T00:17:46.051Z,0.00
2019-01-13T00:18:46.030Z,0.00
2019-01-13T00:19:46.057Z,0.00
2019-01-13T00:20:46.016Z,0.00
2019-01-13T00:21:46.066Z,0.00
2019-01-13T00:22:46.018Z,0.00
2019-01-13T00:23:47.000Z,0.00
2019-01-13T00:24:45.974Z,0.00
2019-01-13T00:25:46.013Z,0.00
2019-01-13T00:26:45.965Z,0.00
2019-01-13T00:27:45.947Z,0.00
2019-01-13T00:28:46.036Z,0.00
2019-01-13T00:29:45.926Z,0.00
2019-01-13T00:30:45.929Z,0.00
2019-01-13T00:31:45.906Z,0.00
2019-01-13T00:32:45.904Z,0.00
2019-01-13T00:33:45.891Z,0.00
2019-01-13T00:34:45.871Z,0.00
2019-01-13T00:35:45.877Z,0.00
2019-01-13T00:36:45.848Z,0.00
2019-01-13T00:37:45.829Z,0.00
2019-01-13T00:38:45.831Z,0.00
2019-01-13T00:39:45.806Z,0.00
2019-01-13T00:40:45.844Z,0.00
2019-01-13T00:41:45.810Z,0.00
2019-01-13T00:42:45.826Z,0.00
2019-01-13T00:43:45.782Z,0.00
2019-01-13T00:44:45.770Z,0.00
2019-01-13T00:45:45.752Z,0.00
2019-01-13T00:46:45.748Z,0.00
2019-01-13T00:47:45.727Z,0.00
2019-01-13T00:48:45.733Z,0.00
2019-01-13T00:49:45.757Z,0.00
2019-01-13T00:50:45.686Z,0.00
2019-01-13T00:51:45.678Z,0.00
2019-01-13T00:52:45.672Z,0.00
2019-01-13T00:53:45.650Z,0.00
2019-01-13T00:54:45.665Z,0.00
2019-01-13T00:55:45.665Z,0.00
2019-01-13T00:56:45.627Z,0.00
2019-01-13T00:57:45.607Z,0.00
2019-01-13T00:58:45.613Z,0.00
2019-01-13T00:59:45.605Z,0.00
2019-01-13T01:00:45.593Z,0.00
2019-01-13T01:01:45.602Z,0.00
2019-01-13T01:02:45.599Z,0.00
2019-01-13T01:03:45.554Z,0.00
2019-01-13T01:04:45.540Z,0.00
2019-01-13T01:05:45.563Z,0.00
2019-01-13T01:06:45.538Z,0.00
2019-01-13T01:07:47.055Z,0.00
2019-01-13T01:08:45.508Z,0.00
2019-01-13T01:09:45.490Z,0.00
2019-01-13T01:10:45.487Z,0.00
2019-01-13T01:11:45.489Z,0.00
2019-01-13T01:12:45.465Z,0.00
2019-01-13T01:13:45.452Z,0.00
2019-01-13T01:14:45.435Z,0.00
2019-01-13T01:15:45.434Z,0.00
2019-01-13T01:16:45.459Z,0.00
2019-01-13T01:17:45.393Z,0.00
2019-01-13T01:18:45.415Z,0.00
2019-01-13T01:19:45.383Z,0.00
2019-01-13T01:20:45.380Z,0.00
2019-01-13T01:21:45.378Z,0.00
2019-01-13T01:22:45.409Z,0.00
2019-01-13T01:23:45.355Z,0.00
2019-01-13T01:24:45.339Z,0.00
2019-01-13T01:25:45.309Z,0.00
2019-01-13T01:26:45.319Z,0.00
2019-01-13T01:27:45.338Z,0.00
2019-01-13T01:28:45.281Z,0.00
2019-01-13T01:29:45.270Z,0.00
2019-01-13T01:30:45.265Z,0.00
2019-01-13T01:31:45.301Z,0.00
2019-01-13T01:32:45.254Z,0.00
2019-01-13T01:33:45.227Z,0.00
2019-01-13T01:34:45.219Z,0.00
2019-01-13T01:35:45.203Z,0.00
2019-01-13T01:36:45.192Z,0.00
2019-01-13T01:37:45.211Z,0.00
2019-01-13T01:38:45.173Z,0.00
2019-01-13T01:39:45.185Z,0.00
2019-01-13T01:40:45.153Z,0.00
2019-01-13T01:41:45.219Z,0.00
2019-01-13T01:42:45.159Z,0.00
2019-01-13T01:43:45.128Z,0.00
2019-01-13T01:44:45.103Z,0.00
2019-01-13T01:45:45.097Z,0.00
2019-01-13T01:46:45.091Z,0.00
2019-01-13T01:47:45.087Z,0.00
2019-01-13T01:48:45.079Z,0.00
2019-01-13T01:49:45.048Z,0.00
2019-01-13T01:50:45.051Z,0.00
2019-01-13T01:51:45.035Z,0.00
2019-01-13T01:52:45.024Z,0.00
2019-01-13T01:53:45.022Z,0.00
2019-01-13T01:54:45.019Z,0.00
2019-01-13T01:55:45.031Z,0.00
2019-01-13T01:56:44.989Z,0.00
2019-01-13T01:57:44.963Z,0.00
2019-01-13T01:58:44.969Z,0.00
2019-01-13T01:59:44.965Z,0.00
2019-01-13T02:00:44.969Z,0.00
2019-01-13T02:01:44.931Z,0.00
2019-01-13T02:02:44.926Z,0.00
2019-01-13T02:03:44.906Z,0.00
2019-01-13T02:04:44.960Z,0.00
2019-01-13T02:05:44.915Z,0.00
2019-01-13T02:06:44.873Z,0.00
2019-01-13T02:07:44.878Z,0.00
2019-01-13T02:08:44.858Z,0.00
2019-01-13T02:09:44.841Z,0.00
2019-01-13T02:10:44.844Z,0.00
2019-01-13T02:11:44.834Z,0.00
2019-01-13T02:12:44.804Z,0.00
2019-01-13T02:13:44.797Z,0.00
2019-01-13T02:14:44.854Z,0.00
2019-01-13T02:15:44.781Z,0.00
2019-01-13T02:16:44.783Z,0.00
2019-01-13T02:17:44.781Z,0.00
2019-01-13T02:18:44.743Z,0.00
2019-01-13T02:19:44.782Z,0.00
2019-01-13T02:20:44.723Z,0.00
2019-01-13T02:21:44.706Z,0.00
2019-01-13T02:22:44.700Z,0.00
2019-01-13T02:23:44.681Z,0.00
2019-01-13T02:24:44.692Z,0.00
2019-01-13T02:25:44.682Z,0.00
2019-01-13T02:26:44.657Z,0.00
2019-01-13T02:27:44.661Z,0.00
2019-01-13T02:28:44.658Z,0.00
2019-01-13T02:29:44.630Z,0.00
2019-01-13T02:30:49.137Z,0.00
2019-01-13T02:31:44.617Z,0.00
2019-01-13T02:32:44.582Z,0.00
2019-01-13T02:33:44.571Z,0.00
2019-01-13T02:34:44.563Z,0.00
2019-01-13T02:35:44.583Z,0.00
2019-01-13T02:36:44.549Z,0.00
2019-01-13T02:37:44.554Z,0.00
2019-01-13T02:38:44.528Z,0.00
2019-01-13T02:39:44.513Z,0.00
2019-01-13T02:40:44.534Z,0.00
2019-01-13T02:41:44.494Z,0.00
2019-01-13T02:42:44.500Z,0.00
2019-01-13T02:43:44.472Z,0.00
2019-01-13T02:44:44.452Z,0.00
2019-01-13T02:45:44.475Z,0.00
2019-01-13T02:46:44.444Z,0.00
2019-01-13T02:47:44.417Z,0.00
2019-01-13T02:48:44.434Z,0.00
2019-01-13T02:49:44.409Z,0.00
2019-01-13T02:50:44.434Z,0.00
2019-01-13T02:51:44.387Z,0.00
2019-01-13T02:52:44.386Z,0.00
2019-01-13T02:53:44.375Z,0.00
2019-01-13T02:54:44.346Z,0.00
2019-01-13T02:55:44.348Z,0.00
2019-01-13T02:56:44.343Z,0.00
2019-01-13T02:57:44.344Z,0.00
2019-01-13T02:58:44.328Z,0.00
2019-01-13T02:59:44.289Z,0.00
2019-01-13T03:00:44.293Z,0.00
2019-01-13T03:01:44.282Z,0.00
2019-01-13T03:02:44.275Z,0.00
2019-01-13T03:03:44.300Z,0.00
2019-01-13T03:04:44.236Z,0.00
2019-01-13T03:05:44.238Z,0.00
2019-01-13T03:06:44.260Z,0.00
2019-01-13T03:07:44.210Z,0.00
2019-01-13T03:08:44.206Z,0.00
2019-01-13T03:09:44.191Z,0.00
2019-01-13T03:10:44.192Z,0.00
2019-01-13T03:11:44.187Z,0.00
2019-01-13T03:12:44.165Z,0.00
2019-01-13T03:13:44.163Z,0.00
2019-01-13T03:14:44.157Z,0.00
2019-01-13T03:15:44.143Z,0.00
2019-01-13T03:16:44.107Z,0.00
2019-01-13T03:17:44.098Z,0.00
2019-01-13T03:18:44.124Z,0.00
2019-01-13T03:19:44.088Z,0.00
2019-01-13T03:20:44.115Z,0.00
2019-01-13T03:21:44.067Z,0.00
2019-01-13T03:22:44.123Z,0.00
2019-01-13T03:23:44.046Z,0.00
2019-01-13T03:24:44.018Z,0.00
2019-01-13T03:25:44.034Z,0.00
2019-01-13T03:26:44.027Z,0.00
2019-01-13T03:27:43.990Z,0.00
2019-01-13T03:28:43.997Z,0.00
2019-01-13T03:29:43.977Z,0.00
2019-01-13T03:30:43.982Z,0.00
2019-01-13T03:31:43.943Z,0.00
2019-01-13T03:32:43.947Z,0.00
2019-01-13T03:33:43.926Z,0.00
2019-01-13T03:34:43.922Z,0.00
2019-01-13T03:35:43.907Z,0.00
2019-01-13T03:36:43.918Z,0.00
2019-01-13T03:37:43.894Z,0.00
2019-01-13T03:38:43.884Z,0.00
2019-01-13T03:39:43.862Z,0.00
2019-01-13T03:40:43.853Z,0.00
2019-01-13T03:41:43.857Z,0.00
2019-01-13T03:42:43.828Z,0.00
2019-01-13T03:43:43.835Z,0.00
2019-01-13T03:44:43.832Z,0.00
2019-01-13T03:45:43.904Z,0.00
2019-01-13T03:46:43.809Z,0.00
2019-01-13T03:47:43.805Z,0.00
2019-01-13T03:48:43.780Z,0.00
2019-01-13T03:49:43.782Z,0.00
2019-01-13T03:50:43.745Z,0.00
2019-01-13T03:51:43.744Z,0.00
2019-01-13T03:52:43.756Z,0.00
2019-01-13T03:53:43.737Z,0.00
2019-01-13T03:54:43.737Z,0.00
2019-01-13T03:55:43.695Z,0.00
2019-01-13T03:56:43.699Z,0.00
2019-01-13T03:57:43.664Z,0.00
2019-01-13T03:58:43.654Z,0.00
2019-01-13T03:59:43.686Z,0.00
2019-01-13T04:00:43.642Z,0.00
2019-01-13T04:01:43.644Z,0.00
2019-01-13T04:02:43.609Z,0.00
2019-01-13T04:03:43.598Z,0.00
2019-01-13T04:04:43.593Z,0.00
2019-01-13T04:05:43.582Z,0.00
2019-01-13T04:06:43.606Z,0.00
2019-01-13T04:07:43.597Z,0.00
2019-01-13T04:08:43.542Z,0.00
2019-01-13T04:09:43.544Z,0.00
2019-01-13T04:10:43.526Z,0.00
2019-01-13T04:11:43.541Z,0.00
2019-01-13T04:12:43.529Z,0.00
2019-01-13T04:13:43.508Z,0.00
2019-01-13T04:14:43.482Z,0.00
2019-01-13T04:15:43.500Z,0.00
2019-01-13T04:16:43.463Z,0.00
2019-01-13T04:17:43.473Z,0.00
2019-01-13T04:18:43.450Z,0.00
2019-01-13T04:19:43.442Z,0.00
2019-01-13T04:20:43.421Z,0.00
2019-01-13T04:21:43.418Z,0.00
2019-01-13T04:22:43.435Z,0.00
2019-01-13T04:23:43.380Z,0.00
2019-01-13T04:24:43.397Z,0.00
2019-01-13T04:25:43.372Z,0.00
2019-01-13T04:26:43.396Z,0.00
2019-01-13T04:27:43.349Z,0.00
2019-01-13T04:28:43.334Z,0.00
2019-01-13T04:29:43.337Z,0.00
2019-01-13T04:30:43.352Z,0.00
2019-01-13T04:31:43.310Z,0.00
2019-01-13T04:32:43.301Z,0.00
2019-01-13T04:33:43.289Z,0.00
2019-01-13T04:34:43.290Z,0.00
2019-01-13T04:35:43.276Z,0.00
2019-01-13T04:36:43.268Z,0.00
2019-01-13T04:37:43.236Z,0.00
2019-01-13T04:38:43.230Z,0.00
2019-01-13T04:39:43.241Z,0.00
2019-01-13T04:40:43.212Z,0.00
2019-01-13T04:41:43.208Z,0.00
2019-01-13T04:42:43.194Z,0.00
2019-01-13T04:43:43.175Z,0.00
2019-01-13T04:44:43.178Z,0.00
2019-01-13T04:45:43.166Z,0.00
2019-01-13T04:46:43.142Z,0.00
2019-01-13T04:47:43.156Z,0.00
2019-01-13T04:48:43.118Z,0.00
2019-01-13T04:49:43.136Z,0.00
2019-01-13T04:50:43.098Z,0.00
2019-01-13T04:51:43.100Z,0.00
2019-01-13T04:52:43.119Z,0.00
2019-01-13T04:53:43.084Z,0.00
2019-01-13T04:54:43.066Z,0.00
2019-01-13T04:55:43.092Z,0.00
2019-01-13T04:56:43.032Z,0.00
2019-01-13T04:57:43.041Z,0.00
2019-01-13T04:58:43.052Z,0.00
2019-01-13T04:59:43.008Z,0.00
2019-01-13T05:00:43.065Z,0.00
2019-01-13T05:01:43.029Z,0.00
2019-01-13T05:02:42.964Z,0.00
2019-01-13T05:03:42.964Z,0.00
2019-01-13T05:04:42.952Z,0.00
2019-01-13T05:05:42.937Z,0.00
2019-01-13T05:06:42.977Z,0.00
2019-01-13T05:07:42.905Z,0.00
2019-01-13T05:08:42.923Z,0.00
2019-01-13T05:09:42.892Z,0.00
2019-01-13T05:10:42.884Z,0.00
2019-01-13T05:11:42.873Z,0.00
2019-01-13T05:12:42.962Z,0.00
2019-01-13T05:13:42.865Z,0.00
2019-01-13T05:14:42.860Z,0.00
2019-01-13T05:15:42.837Z,0.00
2019-01-13T05:16:42.808Z,0.00
2019-01-13T05:17:42.800Z,0.00
2019-01-13T05:18:42.843Z,0.00
2019-01-13T05:19:42.845Z,0.00
2019-01-13T05:20:42.790Z,0.00
2019-01-13T05:21:42.810Z,0.00
2019-01-13T05:22:42.748Z,0.00
2019-01-13T05:23:42.733Z,0.00
2019-01-13T05:24:42.751Z,0.00
2019-01-13T05:25:42.737Z,0.00
2019-01-13T05:26:42.724Z,0.00
2019-01-13T05:27:42.698Z,0.00
2019-01-13T05:28:42.685Z,0.00
2019-01-13T05:29:42.670Z,0.00
2019-01-13T05:30:42.682Z,0.00
2019-01-13T05:31:42.673Z,0.00
2019-01-13T05:32:42.670Z,0.00
2019-01-13T05:33:42.692Z,0.00
2019-01-13T05:34:42.672Z,0.00
2019-01-13T05:35:42.685Z,0.00
2019-01-13T05:36:42.594Z,0.00
2019-01-13T05:37:42.595Z,0.00
2019-01-13T05:38:42.584Z,0.00
2019-01-13T05:39:42.578Z,0.00
2019-01-13T05:40:42.590Z,0.00
2019-01-13T05:41:42.630Z,0.00
2019-01-13T05:42:42.532Z,0.00
2019-01-13T05:43:42.524Z,0.00
2019-01-13T05:44:42.530Z,0.00
2019-01-13T05:45:42.507Z,0.00
2019-01-13T05:46:42.527Z,0.00
2019-01-13T05:47:42.486Z,0.00
2019-01-13T05:48:42.477Z,0.00
2019-01-13T05:49:42.456Z,0.00
2019-01-13T05:50:42.450Z,0.00
2019-01-13T05:51:42.433Z,0.00
2019-01-13T05:52:42.446Z,0.00
2019-01-13T05:53:42.433Z,0.00
2019-01-13T05:54:42.429Z,0.00
2019-01-13T05:55:42.393Z,0.00
2019-01-13T05:56:42.394Z,0.00
2019-01-13T05:57:42.373Z,0.00
2019-01-13T05:58:42.373Z,0.00
2019-01-13T05:59:42.360Z,0.00
2019-01-13T06:00:42.335Z,0.00
2019-01-13T06:01:48.939Z,0.00
2019-01-13T06:02:43.338Z,0.00
2019-01-13T06:03:42.321Z,0.00
2019-01-13T06:04:42.299Z,0.00
2019-01-13T06:05:42.314Z,0.00
2019-01-13T06:06:42.288Z,0.00
2019-01-13T06:07:42.280Z,0.00
2019-01-13T06:08:42.287Z,0.00
2019-01-13T06:09:42.264Z,0.00
2019-01-13T06:10:42.233Z,0.00
2019-01-13T06:11:42.242Z,0.00
2019-01-13T06:12:42.231Z,0.00
2019-01-13T06:13:42.208Z,0.00
2019-01-13T06:14:42.194Z,0.00
2019-01-13T06:15:42.223Z,0.00
2019-01-13T06:16:42.179Z,0.00
2019-01-13T06:17:42.180Z,0.00
2019-01-13T06:18:42.145Z,0.00
2019-01-13T06:19:42.147Z,0.00
2019-01-13T06:20:42.147Z,0.00
2019-01-13T06:21:42.185Z,0.00
2019-01-13T06:22:42.109Z,0.00
2019-01-13T06:23:42.087Z,0.00
2019-01-13T06:24:42.116Z,0.00
2019-01-13T06:25:42.090Z,0.00
2019-01-13T06:26:42.075Z,0.00
2019-01-13T06:27:42.142Z,0.00
2019-01-13T06:28:42.041Z,0.00
2019-01-13T06:29:42.028Z,0.00
2019-01-13T06:30:42.044Z,0.00
2019-01-13T06:31:42.023Z,0.00
2019-01-13T06:32:41.997Z,0.00
2019-01-13T06:33:41.981Z,0.00
2019-01-13T06:34:41.990Z,0.00
2019-01-13T06:35:41.962Z,0.00
2019-01-13T06:36:41.969Z,0.00
2019-01-13T06:37:41.949Z,0.00
2019-01-13T06:38:41.933Z,0.00
2019-01-13T06:39:41.920Z,0.00
2019-01-13T06:40:41.924Z,0.00
2019-01-13T06:41:41.916Z,0.00
2019-01-13T06:42:41.895Z,0.00
2019-01-13T06:43:41.925Z,0.00
2019-01-13T06:44:41.888Z,0.00
2019-01-13T06:45:41.853Z,0.00
2019-01-13T06:46:41.865Z,0.00
2019-01-13T06:47:41.827Z,0.00
2019-01-13T06:48:41.832Z,0.00
2019-01-13T06:49:41.851Z,0.00
2019-01-13T06:50:41.810Z,0.00
2019-01-13T06:51:41.812Z,0.00
2019-01-13T06:52:41.784Z,0.00
2019-01-13T06:53:41.786Z,0.00
2019-01-13T06:54:41.760Z,0.00
2019-01-13T06:55:41.740Z,0.00
2019-01-13T06:56:41.791Z,0.00
2019-01-13T06:57:41.746Z,0.00
2019-01-13T06:58:41.717Z,0.00
2019-01-13T06:59:41.697Z,0.00
2019-01-13T07:00:41.698Z,0.00
2019-01-13T07:01:41.684Z,0.00
2019-01-13T07:02:41.744Z,0.00
2019-01-13T07:03:41.708Z,0.00
2019-01-13T07:04:41.647Z,0.00
2019-01-13T07:05:41.637Z,0.00
2019-01-13T07:06:41.631Z,0.00
2019-01-13T07:07:41.615Z,0.00
2019-01-13T07:08:41.629Z,0.00
2019-01-13T07:09:41.596Z,0.00
2019-01-13T07:10:41.625Z,0.00
2019-01-13T07:11:41.578Z,0.00
2019-01-13T07:12:41.575Z,0.00
2019-01-13T07:13:41.551Z,4.00
2019-01-13T07:14:41.554Z,4.00
2019-01-13T07:15:41.559Z,4.00
2019-01-13T07:16:41.541Z,4.00
2019-01-13T07:17:41.519Z,0.00
2019-01-13T07:18:41.528Z,0.00
2019-01-13T07:19:41.485Z,0.00
2019-01-13T07:20:41.484Z,4.00
2019-01-13T07:21:41.474Z,4.00
2019-01-13T07:22:43.038Z,4.00
2019-01-13T07:23:41.446Z,4.00
2019-01-13T07:24:41.428Z,4.00
2019-01-13T07:25:41.433Z,4.00
2019-01-13T07:26:41.423Z,4.00
2019-01-13T07:27:41.392Z,8.00
2019-01-13T07:28:41.388Z,4.00
2019-01-13T07:29:41.377Z,4.00
2019-01-13T07:30:41.398Z,8.00
2019-01-13T07:31:41.366Z,8.00
2019-01-13T07:32:41.345Z,12.00
2019-01-13T07:33:41.346Z,12.00
2019-01-13T07:34:41.336Z,12.00
2019-01-13T07:35:41.320Z,12.00
2019-01-13T07:36:41.294Z,16.00
2019-01-13T07:37:41.300Z,16.00
2019-01-13T07:38:41.278Z,20.00
2019-01-13T07:39:41.295Z,20.00
2019-01-13T07:40:41.273Z,24.00
2019-01-13T07:41:41.258Z,32.00
2019-01-13T07:42:41.239Z,36.00
2019-01-13T07:43:41.239Z,40.00
2019-01-13T07:44:41.216Z,44.00
2019-01-13T07:45:41.211Z,40.00
2019-01-13T07:46:41.203Z,40.00
2019-01-13T07:47:41.217Z,40.00
2019-01-13T07:48:41.169Z,36.00
2019-01-13T07:49:44.842Z,36.00
2019-01-13T07:50:41.163Z,36.00
2019-01-13T07:51:41.156Z,36.00
2019-01-13T07:52:41.155Z,36.00
2019-01-13T07:53:41.116Z,36.00
2019-01-13T07:54:41.107Z,36.00
2019-01-13T07:55:41.131Z,40.00
2019-01-13T07:56:41.095Z,44.00
2019-01-13T07:57:41.089Z,44.00
2019-01-13T07:58:41.074Z,48.00
2019-01-13T07:59:41.048Z,56.00
2019-01-13T08:00:41.045Z,64.00
2019-01-13T08:01:41.074Z,72.00
2019-01-13T08:02:41.065Z,76.00
2019-01-13T08:03:41.026Z,80.00
2019-01-13T08:04:41.008Z,80.00
2019-01-13T08:05:41.030Z,92.00
2019-01-13T08:06:40.985Z,96.00
2019-01-13T08:07:40.970Z,104.00
2019-01-13T08:08:40.981Z,116.00
2019-01-13T08:09:40.954Z,132.00
2019-01-13T08:10:41.016Z,144.00
2019-01-13T08:11:40.965Z,148.00
2019-01-13T08:12:40.984Z,160.00
2019-01-13T08:13:40.902Z,156.00
2019-01-13T08:14:40.942Z,164.00
2019-01-13T08:15:40.899Z,176.00
2019-01-13T08:16:40.863Z,184.00
2019-01-13T08:17:40.926Z,200.00
2019-01-13T08:18:40.852Z,196.00
2019-01-13T08:19:40.861Z,196.00
2019-01-13T08:20:40.828Z,196.00
2019-01-13T08:21:40.816Z,188.00
2019-01-13T08:22:40.870Z,176.00
2019-01-13T08:23:40.850Z,160.00
2019-01-13T08:24:40.782Z,160.00
2019-01-13T08:25:40.792Z,164.00
2019-01-13T08:26:40.776Z,160.00
2019-01-13T08:27:40.783Z,160.00
2019-01-13T08:28:40.747Z,176.00
2019-01-13T08:29:40.733Z,200.00
2019-01-13T08:30:40.713Z,228.00
2019-01-13T08:31:40.782Z,232.00
2019-01-13T08:32:40.771Z,232.00
2019-01-13T08:33:40.699Z,224.00
2019-01-13T08:34:41.605Z,220.00
2019-01-13T08:35:40.764Z,208.00
2019-01-13T08:36:40.657Z,192.00
2019-01-13T08:37:40.715Z,168.00
2019-01-13T08:38:40.666Z,164.00
2019-01-13T08:39:40.659Z,164.00
2019-01-13T08:40:40.612Z,168.00
2019-01-13T08:41:40.648Z,164.00
2019-01-13T08:42:40.650Z,180.00
2019-01-13T08:43:40.597Z,184.00
2019-01-13T08:44:40.647Z,184.00
2019-01-13T08:45:42.045Z,176.00
2019-01-13T08:46:40.573Z,176.00
2019-01-13T08:47:40.552Z,180.00
2019-01-13T08:48:40.529Z,168.00
2019-01-13T08:49:40.504Z,160.00
2019-01-13T08:50:40.513Z,152.00
2019-01-13T08:51:40.491Z,160.00
2019-01-13T08:52:40.469Z,172.00
2019-01-13T08:53:40.492Z,192.00
2019-01-13T08:54:40.460Z,196.00
2019-01-13T08:55:40.436Z,196.00
2019-01-13T08:56:40.439Z,204.00
2019-01-13T08:57:40.433Z,200.00
2019-01-13T08:58:40.450Z,200.00
2019-01-13T08:59:40.427Z,240.00
2019-01-13T09:00:40.390Z,252.00
2019-01-13T09:01:40.432Z,252.00
2019-01-13T09:02:40.415Z,252.00
2019-01-13T09:03:40.360Z,280.00
2019-01-13T09:04:40.381Z,276.00
2019-01-13T09:05:40.342Z,268.00
2019-01-13T09:06:40.342Z,272.00
2019-01-13T09:07:40.333Z,292.00
2019-01-13T09:08:40.326Z,308.00
2019-01-13T09:09:40.291Z,320.00
2019-01-13T09:10:40.314Z,320.00
2019-01-13T09:11:40.282Z,384.00
2019-01-13T09:12:40.272Z,432.00
2019-01-13T09:13:40.256Z,432.00
2019-01-13T09:14:40.294Z,468.00
2019-01-13T09:15:40.223Z,468.00
2019-01-13T09:16:40.218Z,424.00
2019-01-13T09:17:40.208Z,408.00
2019-01-13T09:18:40.199Z,444.00
2019-01-13T09:19:40.204Z,504.00
2019-01-13T09:20:40.181Z,480.00
2019-01-13T09:21:40.170Z,468.00
2019-01-13T09:22:40.157Z,472.00
2019-01-13T09:23:40.171Z,484.00
2019-01-13T09:24:40.155Z,472.00
2019-01-13T09:25:40.125Z,512.00
2019-01-13T09:26:40.102Z,580.00
2019-01-13T09:27:40.114Z,548.00
2019-01-13T09:28:40.099Z,536.00
2019-01-13T09:29:42.559Z,512.00
2019-01-13T09:30:40.112Z,508.00
2019-01-13T09:31:40.073Z,560.00
2019-01-13T09:32:40.045Z,540.00
2019-01-13T09:33:40.031Z,572.00
2019-01-13T09:34:40.021Z,616.00
2019-01-13T09:35:40.035Z,652.00
2019-01-13T09:36:40.009Z,652.00
2019-01-13T09:37:40.000Z,728.00
2019-01-13T09:38:39.972Z,752.00
2019-01-13T09:39:39.964Z,764.00
2019-01-13T09:40:39.998Z,800.00
2019-01-13T09:41:39.975Z,784.00
2019-01-13T09:42:39.937Z,700.00
2019-01-13T09:43:39.946Z,616.00
2019-01-13T09:44:39.908Z,656.00
2019-01-13T09:45:39.902Z,640.00
2019-01-13T09:46:39.917Z,652.00
2019-01-13T09:47:39.887Z,744.00
2019-01-13T09:48:39.876Z,840.00
2019-01-13T09:49:40.247Z,888.00
2019-01-13T09:50:39.845Z,884.00
2019-01-13T09:51:39.832Z,888.00
2019-01-13T09:52:39.828Z,908.00
2019-01-13T09:53:39.833Z,912.00
2019-01-13T09:54:39.808Z,848.00
2019-01-13T09:55:39.806Z,804.00
2019-01-13T09:56:39.784Z,788.00
2019-01-13T09:57:39.828Z,848.00
2019-01-13T09:58:39.751Z,760.00
2019-01-13T09:59:39.747Z,712.00
2019-01-13T10:00:39.742Z,748.00
2019-01-13T10:01:39.725Z,680.00
2019-01-13T10:02:46.452Z,624.00
2019-01-13T10:03:40.703Z,652.00
2019-01-13T10:04:39.693Z,716.00
2019-01-13T10:05:39.688Z,648.00
2019-01-13T10:06:39.695Z,584.00
2019-01-13T10:07:39.664Z,544.00
2019-01-13T10:08:39.680Z,484.00
2019-01-13T10:09:39.646Z,472.00
2019-01-13T10:10:39.625Z,464.00
2019-01-13T10:11:39.622Z,532.00
2019-01-13T10:12:39.613Z,548.00
2019-01-13T10:13:39.597Z,660.00
2019-01-13T10:14:39.599Z,640.00
2019-01-13T10:15:39.571Z,660.00
2019-01-13T10:16:39.579Z,736.00
2019-01-13T10:17:39.556Z,804.00
2019-01-13T10:18:39.570Z,832.00
2019-01-13T10:19:39.557Z,752.00
2019-01-13T10:20:39.599Z,720.00
2019-01-13T10:21:39.580Z,736.00
2019-01-13T10:22:39.543Z,772.00
2019-01-13T10:23:39.542Z,776.00
2019-01-13T10:24:39.476Z,860.00
2019-01-13T10:25:39.478Z,804.00
2019-01-13T10:26:39.465Z,804.00
2019-01-13T10:27:39.480Z,860.00
2019-01-13T10:28:39.632Z,656.00
2019-01-13T10:29:39.448Z,560.00
2019-01-13T10:30:39.427Z,592.00
2019-01-13T10:31:39.402Z,568.00
2019-01-13T10:32:39.406Z,596.00
2019-01-13T10:33:39.474Z,656.00
2019-01-13T10:34:39.381Z,708.00
2019-01-13T10:35:39.356Z,684.00
2019-01-13T10:36:39.362Z,676.00
2019-01-13T10:37:39.331Z,672.00
2019-01-13T10:38:39.347Z,720.00
2019-01-13T10:39:39.312Z,724.00
2019-01-13T10:40:39.322Z,700.00
2019-01-13T10:41:39.297Z,752.00
2019-01-13T10:42:39.310Z,684.00
2019-01-13T10:43:39.301Z,696.00
2019-01-13T10:44:39.312Z,612.00
2019-01-13T10:45:39.268Z,684.00
2019-01-13T10:46:39.263Z,752.00
2019-01-13T10:47:39.283Z,828.00
2019-01-13T10:48:39.242Z,792.00
2019-01-13T10:49:39.214Z,844.00
2019-01-13T10:50:39.205Z,840.00
2019-01-13T10:51:39.218Z,840.00
2019-01-13T10:52:39.195Z,1004.00
2019-01-13T10:53:39.190Z,1000.00
2019-01-13T10:54:39.219Z,1076.00
2019-01-13T10:55:39.265Z,992.00
2019-01-13T10:56:39.135Z,920.00
2019-01-13T10:57:39.140Z,1024.00
2019-01-13T10:58:39.142Z,964.00
2019-01-13T10:59:39.113Z,952.00
2019-01-13T11:00:39.119Z,928.00
2019-01-13T11:01:39.081Z,876.00
2019-01-13T11:02:39.062Z,1060.00
2019-01-13T11:03:39.077Z,980.00
2019-01-13T11:04:39.044Z,1108.00
2019-01-13T11:05:39.035Z,1136.00
2019-01-13T11:06:40.200Z,1048.00
2019-01-13T11:07:39.021Z,960.00
2019-01-13T11:08:39.017Z,912.00
2019-01-13T11:09:39.018Z,756.00
2019-01-13T11:10:39.040Z,708.00
2019-01-13T11:11:38.984Z,688.00
2019-01-13T11:12:38.976Z,604.00
2019-01-13T11:13:38.964Z,624.00
2019-01-13T11:14:38.950Z,628.00
2019-01-13T11:15:38.975Z,632.00
2019-01-13T11:16:38.953Z,816.00
2019-01-13T11:17:38.915Z,1040.00
2019-01-13T11:18:38.895Z,1160.00
2019-01-13T11:19:38.891Z,1196.00
2019-01-13T11:20:38.928Z,1176.00
2019-01-13T11:21:38.915Z,1144.00
2019-01-13T11:22:38.935Z,980.00
2019-01-13T11:23:38.884Z,752.00
2019-01-13T11:24:38.835Z,644.00
2019-01-13T11:25:38.846Z,612.00
2019-01-13T11:26:38.860Z,576.00
2019-01-13T11:27:38.834Z,616.00
2019-01-13T11:28:38.790Z,580.00
2019-01-13T11:29:38.810Z,624.00
2019-01-13T11:30:38.824Z,620.00
2019-01-13T11:31:38.756Z,628.00
2019-01-13T11:32:38.763Z,580.00
2019-01-13T11:33:38.775Z,560.00
2019-01-13T11:34:38.779Z,552.00
2019-01-13T11:35:38.712Z,576.00
2019-01-13T11:36:38.717Z,552.00
2019-01-13T11:37:38.714Z,512.00
2019-01-13T11:38:38.743Z,520.00
2019-01-13T11:39:38.669Z,504.00
2019-01-13T11:40:38.658Z,472.00
2019-01-13T11:41:38.662Z,540.00
2019-01-13T11:42:38.714Z,608.00
2019-01-13T11:43:38.735Z,560.00
2019-01-13T11:44:38.643Z,724.00
2019-01-13T11:45:38.610Z,916.00
2019-01-13T11:46:38.592Z,932.00
2019-01-13T11:47:38.632Z,1088.00
2019-01-13T11:48:38.630Z,1536.00
2019-01-13T11:49:38.582Z,1504.00
2019-01-13T11:50:38.560Z,1312.00
2019-01-13T11:51:38.544Z,1164.00
2019-01-13T11:52:38.526Z,1016.00
2019-01-13T11:53:38.514Z,1068.00
2019-01-13T11:54:38.515Z,1036.00
2019-01-13T11:55:38.625Z,932.00
2019-01-13T11:56:38.508Z,1004.00
2019-01-13T11:57:38.509Z,1108.00
2019-01-13T11:58:38.513Z,1012.00
2019-01-13T11:59:38.492Z,964.00
2019-01-13T12:00:38.470Z,920.00
2019-01-13T12:01:38.480Z,808.00
2019-01-13T12:02:38.442Z,836.00
2019-01-13T12:03:38.412Z,812.00
2019-01-13T12:04:38.435Z,712.00
2019-01-13T12:05:38.387Z,592.00
2019-01-13T12:06:38.383Z,660.00
2019-01-13T12:07:38.368Z,812.00
2019-01-13T12:08:38.363Z,1064.00
2019-01-13T12:09:38.353Z,1152.00
2019-01-13T12:10:38.356Z,1060.00
2019-01-13T12:11:38.389Z,936.00
2019-01-13T12:12:38.310Z,916.00
2019-01-13T12:13:38.313Z,932.00
2019-01-13T12:14:38.299Z,868.00
2019-01-13T12:15:38.297Z,888.00
2019-01-13T12:16:38.267Z,936.00
2019-01-13T12:17:38.259Z,836.00
2019-01-13T12:18:40.685Z,724.00
2019-01-13T12:19:38.232Z,644.00
2019-01-13T12:20:38.264Z,584.00
2019-01-13T12:21:38.302Z,504.00
2019-01-13T12:22:38.239Z,416.00
2019-01-13T12:23:38.247Z,320.00
2019-01-13T12:24:38.208Z,300.00
2019-01-13T12:25:38.168Z,312.00
2019-01-13T12:26:38.171Z,344.00
2019-01-13T12:27:38.148Z,376.00
2019-01-13T12:28:38.143Z,404.00
2019-01-13T12:29:38.141Z,456.00
2019-01-13T12:30:38.127Z,468.00
2019-01-13T12:31:38.138Z,520.00
2019-01-13T12:32:38.094Z,556.00
2019-01-13T12:33:38.081Z,584.00
2019-01-13T12:34:38.083Z,636.00
2019-01-13T12:35:38.069Z,736.00
2019-01-13T12:36:38.073Z,788.00
2019-01-13T12:37:38.079Z,840.00
2019-01-13T12:38:38.051Z,880.00
2019-01-13T12:39:38.029Z,884.00
2019-01-13T12:40:38.031Z,860.00
2019-01-13T12:41:38.027Z,860.00
2019-01-13T12:42:37.999Z,892.00
2019-01-13T12:43:37.983Z,888.00
2019-01-13T12:44:37.962Z,808.00
2019-01-13T12:45:37.953Z,752.00
2019-01-13T12:46:37.938Z,696.00
2019-01-13T12:47:38.010Z,604.00
2019-01-13T12:48:37.949Z,548.00
2019-01-13T12:49:37.922Z,544.00
2019-01-13T12:50:37.907Z,584.00
2019-01-13T12:51:37.897Z,628.00
2019-01-13T12:52:37.940Z,648.00
2019-01-13T12:53:37.876Z,628.00
2019-01-13T12:54:37.875Z,644.00
2019-01-13T12:55:37.871Z,636.00
2019-01-13T12:56:37.832Z,640.00
2019-01-13T12:57:37.829Z,620.00